createdAt,value
2022-09-21T00:01:19.237Z,1.55
2022-09-21T00:03:46.596Z,1.67
2022-09-21T00:06:16.145Z,2.33
2022-09-21T00:08:43.077Z,1.88
2022-09-21T00:11:17.595Z,2.17
2022-09-21T00:13:46.580Z,2.35
2022-09-21T00:16:15.331Z,1.95
2022-09-21T00:18:41.867Z,2.05
2022-09-21T00:21:10.780Z,2.50
2022-09-21T00:23:37.931Z,2.40
2022-09-21T00:26:25.707Z,2.00
2022-09-21T00:28:54.782Z,2.78
2022-09-21T00:31:22.336Z,1.95
2022-09-21T00:33:51.023Z,2.30
2022-09-21T00:36:19.324Z,1.60
2022-09-21T00:38:50.434Z,3.00
2022-09-21T00:41:17.106Z,2.00
2022-09-21T00:43:47.715Z,2.67
2022-09-21T00:46:32.487Z,1.98
2022-09-21T00:48:58.924Z,2.10
2022-09-21T00:51:25.939Z,1.70
2022-09-21T00:53:57.964Z,1.60
2022-09-21T00:56:24.612Z,1.90
2022-09-21T00:58:53.653Z,2.33
2022-09-21T01:01:20.450Z,1.98
2022-09-21T01:03:47.805Z,1.50
2022-09-21T01:06:16.533Z,2.03
2022-09-21T01:08:45.071Z,2.03
2022-09-21T01:11:22.637Z,2.47
2022-09-21T01:14:11.375Z,1.50
2022-09-21T01:17:04.683Z,2.45
2022-09-21T01:19:49.879Z,2.03
2022-09-21T01:22:49.491Z,2.70
2022-09-21T01:25:42.648Z,2.70
2022-09-21T01:28:38.018Z,2.75
2022-09-21T01:31:07.702Z,4.05
2022-09-21T01:33:39.619Z,2.00
2022-09-21T01:36:14.302Z,2.65
2022-09-21T01:38:48.523Z,2.72
2022-09-21T01:41:18.131Z,2.10
2022-09-21T01:43:52.932Z,2.47
2022-09-21T01:46:21.507Z,2.35
2022-09-21T01:48:52.805Z,3.35
2022-09-21T01:51:21.768Z,2.80
2022-09-21T01:53:51.851Z,2.15
2022-09-21T01:56:40.587Z,2.72
2022-09-21T01:59:13.191Z,2.38
2022-09-21T02:01:47.163Z,2.33
2022-09-21T02:04:13.802Z,2.28
2022-09-21T02:06:44.844Z,2.60
2022-09-21T02:09:11.720Z,2.38
2022-09-21T02:11:44.802Z,2.47
2022-09-21T02:17:02.082Z,2.10
2022-09-21T02:19:46.186Z,3.63
2022-09-21T02:22:29.223Z,3.15
2022-09-21T02:25:04.028Z,3.00
2022-09-21T02:27:48.683Z,2.33
2022-09-21T02:30:19.191Z,2.47
2022-09-21T02:32:55.204Z,2.40
2022-09-21T02:35:30.039Z,2.58
2022-09-21T02:38:06.815Z,2.67
2022-09-21T02:40:40.689Z,2.70
2022-09-21T02:43:23.038Z,2.53
2022-09-21T02:45:58.812Z,2.30
2022-09-21T02:48:34.555Z,3.03
2022-09-21T02:51:07.592Z,2.78
2022-09-21T02:53:37.473Z,3.10
2022-09-21T02:56:07.188Z,2.50
2022-09-21T02:58:38.309Z,2.60
2022-09-21T03:01:08.711Z,3.28
2022-09-21T03:03:35.365Z,2.08
2022-09-21T03:06:02.343Z,2.30
2022-09-21T03:08:28.755Z,2.30
2022-09-21T03:10:55.123Z,2.13
2022-09-21T03:13:21.563Z,2.53
2022-09-21T03:15:48.023Z,2.92
2022-09-21T03:18:14.957Z,2.58
2022-09-21T03:20:47.639Z,2.30
2022-09-21T03:23:14.389Z,2.95
2022-09-21T03:25:44.861Z,2.35
2022-09-21T03:28:12.491Z,2.60
2022-09-21T03:30:39.294Z,2.67
2022-09-21T03:33:06.044Z,2.13
2022-09-21T03:35:33.851Z,2.58
2022-09-21T03:38:01.109Z,2.38
2022-09-21T03:40:28.466Z,2.88
2022-09-21T03:42:55.519Z,2.50
2022-09-21T03:45:21.923Z,2.58
2022-09-21T03:47:48.578Z,2.80
2022-09-21T03:50:15.616Z,3.17
2022-09-21T03:52:41.966Z,2.88
2022-09-21T03:55:09.434Z,3.22
2022-09-21T03:57:36.514Z,2.72
2022-09-21T04:00:06.703Z,3.20
2022-09-21T04:02:33.206Z,3.20
2022-09-21T04:04:59.967Z,3.08
2022-09-21T04:07:26.486Z,2.75
2022-09-21T04:09:53.472Z,2.83
2022-09-21T04:12:23.000Z,3.30
2022-09-21T04:14:49.680Z,3.30
2022-09-21T04:17:16.118Z,2.90
2022-09-21T04:19:42.923Z,4.38
2022-09-21T04:22:09.471Z,3.85
2022-09-21T04:24:35.796Z,4.05
2022-09-21T04:27:02.175Z,3.20
2022-09-21T04:29:28.572Z,3.92
2022-09-21T04:31:54.891Z,3.42
2022-09-21T04:34:21.241Z,3.92
2022-09-21T04:36:47.964Z,3.83
2022-09-21T04:39:14.309Z,3.95
2022-09-21T04:41:41.988Z,4.00
2022-09-21T04:44:08.340Z,4.32
2022-09-21T04:46:34.710Z,3.80
2022-09-21T04:49:01.094Z,3.80
2022-09-21T04:51:27.452Z,3.88
2022-09-21T04:53:53.837Z,3.88
2022-09-21T04:56:20.199Z,3.65
2022-09-21T04:58:46.667Z,3.80
2022-09-21T05:01:13.086Z,3.88
2022-09-21T05:03:39.587Z,3.70
2022-09-21T05:06:06.135Z,3.72
2022-09-21T05:08:51.189Z,4.07
2022-09-21T05:11:21.508Z,3.88
2022-09-21T05:13:48.219Z,3.50
2022-09-21T05:16:15.935Z,4.35
2022-09-21T05:18:42.230Z,3.60
2022-09-21T05:21:11.251Z,4.10
2022-09-21T05:23:37.652Z,4.22
2022-09-21T05:26:04.497Z,3.50
2022-09-21T05:28:31.384Z,4.50
2022-09-21T05:31:17.712Z,4.13
2022-09-21T05:33:51.961Z,4.28
2022-09-21T05:36:49.457Z,4.07
2022-09-21T05:39:16.000Z,4.03
2022-09-21T05:41:42.528Z,3.42
2022-09-21T05:44:14.211Z,4.53
2022-09-21T05:46:59.033Z,4.75
2022-09-21T05:49:37.271Z,4.28
2022-09-21T05:52:20.055Z,4.43
2022-09-21T05:55:02.578Z,4.40
2022-09-21T05:57:46.493Z,5.05
2022-09-21T06:00:18.881Z,3.50
2022-09-21T06:03:09.644Z,4.68
2022-09-21T06:05:37.280Z,4.50
2022-09-21T06:08:03.591Z,3.45
2022-09-21T06:10:33.519Z,3.20
2022-09-21T06:13:00.075Z,3.80
2022-09-21T06:15:26.513Z,3.90
2022-09-21T06:17:52.880Z,4.82
2022-09-21T06:20:19.218Z,3.78
2022-09-21T06:22:45.536Z,4.55
2022-09-21T06:25:12.016Z,5.18
2022-09-21T06:27:38.372Z,4.00
2022-09-21T06:30:05.274Z,5.75
2022-09-21T06:32:31.596Z,4.95
2022-09-21T06:34:58.014Z,5.63
2022-09-21T06:37:24.343Z,6.15
2022-09-21T06:39:50.805Z,6.35
2022-09-21T06:42:17.131Z,6.22
2022-09-21T06:44:43.504Z,6.53
2022-09-21T06:47:10.006Z,5.70
2022-09-21T06:49:40.417Z,7.63
2022-09-21T06:52:08.719Z,6.90
2022-09-21T06:54:35.205Z,6.55
2022-09-21T06:57:03.098Z,6.88
2022-09-21T06:59:29.451Z,7.05
2022-09-21T07:01:58.343Z,7.57
2022-09-21T07:04:25.353Z,6.68
2022-09-21T07:06:51.828Z,7.70
2022-09-21T07:12:07.031Z,7.95
2022-09-21T07:14:33.646Z,8.00
2022-09-21T07:17:00.182Z,6.47
2022-09-21T07:19:26.779Z,7.20
2022-09-21T07:21:54.682Z,5.78
2022-09-21T07:24:21.061Z,7.57
2022-09-21T07:26:47.527Z,5.65
2022-09-21T07:29:18.563Z,5.30
2022-09-21T07:31:45.238Z,5.68
2022-09-21T07:34:12.795Z,5.80
2022-09-21T07:36:39.434Z,7.20
2022-09-21T07:39:06.236Z,5.70
2022-09-21T07:41:33.047Z,5.32
2022-09-21T07:43:59.384Z,5.15
2022-09-21T07:46:25.923Z,6.70
2022-09-21T07:48:56.207Z,7.43
2022-09-21T07:51:24.039Z,6.07
2022-09-21T07:53:58.750Z,7.20
2022-09-21T07:56:25.582Z,6.55
2022-09-21T07:59:07.175Z,7.65
2022-09-21T08:01:39.307Z,8.13
2022-09-21T08:04:09.231Z,6.82
2022-09-21T08:06:39.817Z,6.45
2022-09-21T08:09:06.905Z,7.50
2022-09-21T08:11:33.541Z,7.93
2022-09-21T08:14:02.867Z,7.95
2022-09-21T08:16:30.844Z,7.90
2022-09-21T08:18:57.324Z,8.02
2022-09-21T08:21:23.626Z,8.07
2022-09-21T08:23:50.130Z,8.00
2022-09-21T08:26:19.291Z,8.88
2022-09-21T08:28:51.526Z,6.80
2022-09-21T08:31:21.789Z,7.85
2022-09-21T08:33:49.644Z,5.13
2022-09-21T08:36:16.018Z,5.13
2022-09-21T08:38:42.373Z,4.22
2022-09-21T08:41:43.732Z,5.40
2022-09-21T08:44:15.608Z,4.70
2022-09-21T08:46:43.965Z,4.47
2022-09-21T08:49:23.008Z,3.88
2022-09-21T08:51:55.507Z,4.78
2022-09-21T08:54:51.258Z,4.03
2022-09-21T08:57:18.788Z,3.72
2022-09-21T08:59:47.262Z,4.35
2022-09-21T09:02:44.366Z,3.75
2022-09-21T09:05:32.746Z,3.25
2022-09-21T09:08:31.378Z,4.10
2022-09-21T09:11:16.904Z,3.17
2022-09-21T09:13:55.715Z,3.80
2022-09-21T09:16:41.867Z,3.35
2022-09-21T09:19:19.847Z,3.58
2022-09-21T09:21:46.603Z,4.65
2022-09-21T09:24:19.568Z,3.70
2022-09-21T09:26:53.241Z,3.60
2022-09-21T09:29:38.759Z,3.92
2022-09-21T09:32:10.846Z,3.55
2022-09-21T09:34:43.467Z,4.97
2022-09-21T09:37:16.578Z,3.45
2022-09-21T09:42:43.193Z,2.92
2022-09-21T09:45:32.845Z,2.90
2022-09-21T09:48:22.412Z,2.80
2022-09-21T09:50:48.915Z,2.83
2022-09-21T09:53:24.038Z,2.75
2022-09-21T09:55:52.807Z,2.75
2022-09-21T09:58:33.600Z,1.80
2022-09-21T10:01:00.211Z,2.83
2022-09-21T10:03:27.755Z,2.58
2022-09-21T10:05:54.801Z,2.00
2022-09-21T10:08:36.198Z,2.40
2022-09-21T10:11:03.439Z,1.85
2022-09-21T10:13:33.175Z,2.17
2022-09-21T10:16:04.083Z,2.03
2022-09-21T10:18:51.073Z,1.80
2022-09-21T10:21:32.805Z,1.80
2022-09-21T10:24:03.020Z,1.75
2022-09-21T10:26:41.700Z,1.90
2022-09-21T10:29:21.838Z,1.55
2022-09-21T10:31:59.300Z,1.88
2022-09-21T10:34:30.079Z,1.70
2022-09-21T10:36:59.143Z,1.73
2022-09-21T10:39:31.025Z,2.20
2022-09-21T10:42:02.887Z,1.60
2022-09-21T10:44:37.292Z,2.05
2022-09-21T10:47:17.023Z,1.50
2022-09-21T10:49:53.794Z,1.50
2022-09-21T10:52:24.632Z,1.88
2022-09-21T10:54:54.952Z,1.77
2022-09-21T10:57:23.677Z,1.40
2022-09-21T10:59:50.885Z,1.58
2022-09-21T11:02:48.362Z,1.60
2022-09-21T11:05:22.276Z,1.85
2022-09-21T11:08:15.934Z,1.80
2022-09-21T11:11:02.523Z,2.15
2022-09-21T11:14:11.041Z,1.88
2022-09-21T11:16:47.575Z,1.90
2022-09-21T11:19:32.879Z,1.58
2022-09-21T11:22:12.753Z,1.88
2022-09-21T11:24:49.159Z,1.38
2022-09-21T11:27:22.576Z,1.67
2022-09-21T11:30:07.152Z,1.75
2022-09-21T11:32:55.048Z,1.50
2022-09-21T11:35:27.075Z,1.17
2022-09-21T11:38:09.793Z,1.35
2022-09-21T11:41:01.913Z,1.63
2022-09-21T11:43:50.458Z,1.70
2022-09-21T11:46:36.384Z,1.63
2022-09-21T11:49:33.371Z,1.70
2022-09-21T11:52:06.987Z,1.08
2022-09-21T11:54:51.877Z,2.10
2022-09-21T11:57:21.963Z,1.60
2022-09-21T11:59:51.275Z,1.58
2022-09-21T12:02:34.002Z,1.10
2022-09-21T12:05:12.354Z,1.50
2022-09-21T12:07:58.192Z,1.55
2022-09-21T12:10:39.892Z,1.35
2022-09-21T12:13:40.916Z,1.20
2022-09-21T12:16:26.039Z,1.05
2022-09-21T12:19:25.925Z,1.30
2022-09-21T12:22:00.239Z,1.30
2022-09-21T12:24:33.868Z,1.48
2022-09-21T12:27:11.356Z,1.08
2022-09-21T12:29:47.091Z,1.35
2022-09-21T12:32:36.832Z,0.95
2022-09-21T12:35:07.994Z,0.90
2022-09-21T12:37:44.557Z,1.42
2022-09-21T12:40:25.046Z,2.17
2022-09-21T12:43:19.215Z,1.60
2022-09-21T12:45:58.411Z,1.63
2022-09-21T12:48:38.781Z,1.55
2022-09-21T12:51:29.503Z,2.13
2022-09-21T12:53:58.748Z,0.90
2022-09-21T12:56:41.250Z,1.00
2022-09-21T12:59:45.325Z,1.17
2022-09-21T13:02:24.345Z,0.80
2022-09-21T13:05:28.074Z,1.42
2022-09-21T13:08:04.326Z,1.20
2022-09-21T13:10:45.367Z,0.80
2022-09-21T13:13:39.141Z,0.93
2022-09-21T13:16:06.847Z,1.10
2022-09-21T13:18:36.979Z,0.80
2022-09-21T13:21:26.752Z,0.88
2022-09-21T13:24:01.266Z,0.70
2022-09-21T13:26:39.163Z,1.30
2022-09-21T13:29:18.837Z,1.40
2022-09-21T13:32:13.903Z,1.13
2022-09-21T13:34:42.515Z,0.77
2022-09-21T13:37:11.795Z,0.90
2022-09-21T13:39:50.282Z,0.82
2022-09-21T13:42:32.061Z,0.82
2022-09-21T13:45:18.666Z,0.85
2022-09-21T13:47:47.482Z,1.10
2022-09-21T13:50:26.380Z,1.08
2022-09-21T13:52:58.535Z,0.90
2022-09-21T13:55:38.258Z,0.80
2022-09-21T13:58:16.278Z,1.38
2022-09-21T14:01:29.254Z,1.15
2022-09-21T14:04:20.167Z,1.27
2022-09-21T14:06:49.961Z,1.00
2022-09-21T14:09:28.297Z,1.02
2022-09-21T14:11:58.589Z,0.85
2022-09-21T14:14:38.189Z,1.65
2022-09-21T14:17:07.014Z,0.82
2022-09-21T14:19:33.347Z,1.73
2022-09-21T14:22:09.356Z,0.90
2022-09-21T14:25:25.602Z,1.20
2022-09-21T14:27:53.602Z,0.90
2022-09-21T14:30:28.520Z,0.95
2022-09-21T14:33:01.027Z,1.02
2022-09-21T14:35:33.838Z,1.08
2022-09-21T14:38:05.229Z,0.77
2022-09-21T14:40:38.901Z,0.80
2022-09-21T14:43:14.819Z,1.27
2022-09-21T14:46:01.939Z,0.90
2022-09-21T14:48:50.029Z,1.00
2022-09-21T14:52:24.914Z,0.80
2022-09-21T14:55:11.741Z,0.88
2022-09-21T14:57:56.123Z,1.20
2022-09-21T15:00:26.300Z,1.23
2022-09-21T15:03:20.450Z,1.00
2022-09-21T15:05:55.144Z,1.10
2022-09-21T15:09:02.586Z,1.20
2022-09-21T15:11:36.819Z,1.30
2022-09-21T15:14:28.248Z,1.60
2022-09-21T15:16:54.655Z,1.23
2022-09-21T15:19:23.899Z,1.10
2022-09-21T15:21:55.902Z,1.30
2022-09-21T15:24:29.439Z,1.35
2022-09-21T15:27:05.590Z,1.35
2022-09-21T15:29:33.337Z,1.27
2022-09-21T15:32:01.060Z,0.80
2022-09-21T15:34:28.137Z,0.80
2022-09-21T15:37:06.491Z,1.02
2022-09-21T15:39:33.057Z,1.00
2022-09-21T15:42:22.957Z,1.10
2022-09-21T15:44:54.018Z,0.98
2022-09-21T15:47:25.764Z,0.98
2022-09-21T15:49:53.908Z,1.10
2022-09-21T15:52:27.397Z,1.23
2022-09-21T15:55:09.071Z,0.68
2022-09-21T15:57:42.879Z,0.77
2022-09-21T16:00:15.457Z,1.60
2022-09-21T16:02:50.629Z,1.60
2022-09-21T16:05:21.027Z,1.70
2022-09-21T16:07:47.531Z,2.08
2022-09-21T16:10:32.639Z,1.33
2022-09-21T16:13:39.027Z,2.15
2022-09-21T16:16:09.834Z,0.93
2022-09-21T16:18:50.931Z,1.27
2022-09-21T16:21:22.430Z,1.15
2022-09-21T16:23:51.861Z,1.00
2022-09-21T16:26:28.212Z,0.73
2022-09-21T16:29:19.116Z,1.10
2022-09-21T16:31:50.059Z,1.23
2022-09-21T16:34:44.795Z,1.00
2022-09-21T16:39:46.915Z,1.10
2022-09-21T16:42:13.500Z,0.70
2022-09-21T16:44:44.760Z,1.20
2022-09-21T16:47:15.211Z,1.10
2022-09-21T16:49:42.334Z,0.80
2022-09-21T16:52:14.538Z,0.70
2022-09-21T16:54:41.486Z,0.77
2022-09-21T16:57:12.475Z,0.95
2022-09-21T16:59:38.873Z,0.68
2022-09-21T17:02:05.588Z,0.85
2022-09-21T17:04:33.912Z,1.08
2022-09-21T17:07:00.984Z,0.82
2022-09-21T17:09:33.561Z,0.80
2022-09-21T17:12:01.641Z,0.90
2022-09-21T17:14:33.911Z,0.80
2022-09-21T17:17:08.167Z,0.65
2022-09-21T17:19:35.463Z,0.88
2022-09-21T17:22:06.758Z,0.77
2022-09-21T17:24:49.640Z,0.50
2022-09-21T17:27:17.979Z,0.80
2022-09-21T17:29:49.471Z,0.57
2022-09-21T17:32:21.039Z,0.68
2022-09-21T17:34:59.686Z,0.77
2022-09-21T17:37:27.026Z,0.90
2022-09-21T17:39:53.804Z,0.98
2022-09-21T17:42:22.952Z,1.40
2022-09-21T17:45:12.741Z,1.60
2022-09-21T17:47:40.628Z,1.75
2022-09-21T17:50:13.061Z,1.60
2022-09-21T17:52:59.608Z,2.17
2022-09-21T17:55:26.481Z,2.05
2022-09-21T17:58:26.565Z,1.88
2022-09-21T18:01:03.956Z,1.77
2022-09-21T18:03:35.771Z,2.42
2022-09-21T18:06:02.405Z,2.40
2022-09-21T18:08:30.794Z,2.08
2022-09-21T18:11:03.703Z,1.75
2022-09-21T18:13:55.126Z,1.25
2022-09-21T18:16:34.212Z,1.50
2022-09-21T18:19:20.027Z,1.70
2022-09-21T18:21:50.512Z,1.23
2022-09-21T18:24:30.829Z,1.08
2022-09-21T18:26:58.766Z,2.00
2022-09-21T18:29:46.239Z,2.28
2022-09-21T18:32:42.006Z,2.20
2022-09-21T18:35:26.001Z,3.20
2022-09-21T18:38:12.712Z,2.30
2022-09-21T18:40:39.076Z,2.15
2022-09-21T18:43:33.948Z,2.45
2022-09-21T18:46:04.917Z,2.45
2022-09-21T18:48:55.747Z,4.10
2022-09-21T18:51:54.189Z,4.38
2022-09-21T18:54:23.695Z,3.38
2022-09-21T18:56:50.147Z,2.70
2022-09-21T18:59:17.455Z,2.75
2022-09-21T19:01:44.848Z,2.35
2022-09-21T19:04:14.158Z,2.30
2022-09-21T19:07:03.240Z,2.38
2022-09-21T19:09:54.430Z,2.00
2022-09-21T19:12:33.387Z,2.20
2022-09-21T19:15:42.337Z,1.50
2022-09-21T19:18:19.904Z,2.00
2022-09-21T19:20:58.407Z,1.60
2022-09-21T19:23:52.022Z,2.20
2022-09-21T19:26:33.152Z,1.80
2022-09-21T19:29:22.493Z,3.00
2022-09-21T19:31:48.864Z,3.08
2022-09-21T19:34:17.838Z,2.80
2022-09-21T19:36:47.132Z,2.95
2022-09-21T19:39:13.934Z,4.05
2022-09-21T19:42:06.055Z,3.65
2022-09-21T19:45:01.528Z,2.95
2022-09-21T19:47:54.314Z,2.72
2022-09-21T19:50:48.926Z,1.95
2022-09-21T19:53:34.049Z,3.35
2022-09-21T19:56:20.059Z,2.60
2022-09-21T19:59:05.058Z,2.78
2022-09-21T20:01:36.532Z,2.47
2022-09-21T20:04:05.100Z,2.70
2022-09-21T20:06:43.911Z,2.22
2022-09-21T20:09:29.514Z,2.17
2022-09-21T20:12:07.679Z,2.00
2022-09-21T20:14:47.152Z,1.73
2022-09-21T20:17:23.896Z,2.13
2022-09-21T20:19:57.463Z,2.05
2022-09-21T20:22:36.645Z,2.00
2022-09-21T20:25:21.990Z,1.75
2022-09-21T20:27:50.789Z,1.77
2022-09-21T20:30:21.399Z,1.55
2022-09-21T20:32:54.543Z,1.73
2022-09-21T20:37:48.999Z,1.80
2022-09-21T20:40:15.546Z,2.67
2022-09-21T20:42:42.235Z,4.47
2022-09-21T20:45:11.870Z,2.25
2022-09-21T20:47:38.670Z,2.00
2022-09-21T20:50:09.887Z,1.42
2022-09-21T20:52:36.249Z,1.95
2022-09-21T20:55:02.673Z,1.85
2022-09-21T20:57:29.277Z,2.15
2022-09-21T20:59:55.567Z,2.22
2022-09-21T21:02:22.019Z,2.22
2022-09-21T21:04:48.328Z,2.00
2022-09-21T21:07:14.651Z,1.88
2022-09-21T21:09:41.225Z,1.42
2022-09-21T21:12:09.232Z,1.98
2022-09-21T21:14:36.539Z,2.13
2022-09-21T21:17:02.968Z,1.45
2022-09-21T21:19:29.401Z,1.70
2022-09-21T21:21:55.848Z,1.70
2022-09-21T21:24:40.778Z,2.28
2022-09-21T21:27:22.592Z,2.45
2022-09-21T21:29:50.982Z,2.45
2022-09-21T21:32:18.459Z,2.17
2022-09-21T21:34:45.155Z,2.88
2022-09-21T21:37:13.215Z,1.77
2022-09-21T21:39:39.739Z,2.03
2022-09-21T21:42:06.227Z,2.05
2022-09-21T21:44:32.738Z,1.90
2022-09-21T21:47:15.099Z,1.55
2022-09-21T21:49:45.672Z,1.45
2022-09-21T21:52:13.067Z,1.80
2022-09-21T21:54:39.515Z,1.70
2022-09-21T21:57:06.048Z,1.80
2022-09-21T21:59:33.078Z,1.92
2022-09-21T22:01:59.526Z,2.15
2022-09-21T22:04:27.961Z,1.88
2022-09-21T22:06:54.434Z,3.05
2022-09-21T22:09:24.014Z,1.45
2022-09-21T22:11:50.769Z,2.28
2022-09-21T22:14:18.152Z,1.77
2022-09-21T22:16:44.862Z,1.70
2022-09-21T22:19:11.326Z,1.70
2022-09-21T22:21:53.139Z,1.30
2022-09-21T22:24:21.196Z,1.95
2022-09-21T22:26:48.457Z,1.88
2022-09-21T22:29:16.991Z,1.70
2022-09-21T22:31:47.025Z,1.80
2022-09-21T22:34:14.472Z,2.70
2022-09-21T22:36:41.026Z,2.63
2022-09-21T22:39:08.273Z,1.58
2022-09-21T22:41:40.054Z,2.30
2022-09-21T22:44:06.809Z,1.67
2022-09-21T22:46:34.136Z,2.20
2022-09-21T22:49:00.832Z,2.03
2022-09-21T22:51:27.991Z,2.10
2022-09-21T22:53:54.527Z,2.22
2022-09-21T22:56:23.737Z,2.13
2022-09-21T22:58:56.250Z,2.53
2022-09-21T23:01:28.783Z,1.60
2022-09-21T23:04:00.600Z,1.90
2022-09-21T23:06:29.617Z,2.13
2022-09-21T23:08:57.510Z,2.58
2022-09-21T23:11:32.723Z,2.08
2022-09-21T23:13:59.675Z,3.10
2022-09-21T23:16:28.181Z,2.38
2022-09-21T23:18:55.709Z,2.30
2022-09-21T23:21:24.528Z,2.22
2022-09-21T23:23:59.731Z,2.03
2022-09-21T23:26:28.402Z,1.73
2022-09-21T23:28:57.561Z,2.63
2022-09-21T23:31:26.653Z,2.10
2022-09-21T23:33:55.170Z,2.17
2022-09-21T23:36:27.718Z,1.52
2022-09-21T23:38:54.221Z,2.40
2022-09-21T23:41:26.983Z,1.55
2022-09-21T23:43:53.939Z,2.10
2022-09-21T23:46:22.995Z,2.13
2022-09-21T23:48:49.815Z,2.30
2022-09-21T23:51:17.437Z,1.92
2022-09-21T23:53:44.294Z,1.67
2022-09-21T23:56:14.263Z,2.13
2022-09-21T23:58:40.883Z,2.22
